^^
Your Local Weather - Clay, NY Station Historical Data
Daily Summary for April 20, 2017 Units:  Metric    English   Both
« Previous Day
Next Day »
Daily Weekly Monthly Yearly Custom
  High: Low: Average:
Temperature: 14.1 °C 8.3 °C 10.9 °C
Dew Point: 10.2 °C 7.3 °C 8.8 °C
Humidity: 94% 74% 87%
Wind Speed: 6.4km/h 0km/h 2.4km/h
Wind Gust: 17.7km/h - -
Wind- - South
Pressure: 1020.2 hPa 1010 hPa -
Precipitation: 18.8 mm    
Historical Graphs
 
 
Tabular Data for April 20, 2017
Time Temperature Dew Point Pressure Wind Wind Speed Wind Gust Humidity Rainfall Rate (Hourly) solar
00:00 9.9 °C 8.9 °C 1017.5 hPa Calm     93% 0 mm 0 W/m2
00:06 9.9 °C 8.8 °C 1017.8 hPa Calm     93% 0 mm 0 W/m2
00:12 9.8 °C 8.7 °C 1017.8 hPa Calm     93% 0 mm 0 W/m2
00:18 9.7 °C 8.7 °C 1017.8 hPa Calm     93% 0 mm 0 W/m2
00:24 9.7 °C 8.7 °C 1017.5 hPa Calm     93% 0 mm 0 W/m2
00:30 9.7 °C 8.6 °C 1017.8 hPa Calm     93% 0 mm 0 W/m2
00:36 9.6 °C 8.6 °C 1017.8 hPa Calm     93% 0 mm 0 W/m2
00:42 9.6 °C 8.5 °C 1017.8 hPa Calm     93% 0 mm 0 W/m2
00:48 9.5 °C 8.4 °C 1017.8 hPa Calm     93% 0 mm 0 W/m2
00:54 9.5 °C 8.4 °C 1017.8 hPa Calm     93% 0 mm 0 W/m2
01:00 9.5 °C 8.4 °C 1017.5 hPa Calm     93% 0 mm 0 W/m2
01:06 9.5 °C 8.4 °C 1017.5 hPa Calm     93% 0 mm 0 W/m2
01:12 9.4 °C 8.4 °C 1017.5 hPa Calm     93% 0 mm 0 W/m2
01:18 9.4 °C 8.3 °C 1017.5 hPa Calm     93% 0 mm 0 W/m2
01:24 9.3 °C 8.2 °C 1017.5 hPa Calm     93% 0 mm 0 W/m2
01:30 9.2 °C 8.1 °C 1017.5 hPa Calm     93% 0 mm 0 W/m2
01:36 9.1 °C 8 °C 1017.5 hPa Calm     93% 0 mm 0 W/m2
01:42 9.1 °C 8 °C 1017.5 hPa Calm     93% 0 mm 0 W/m2
01:48 9.1 °C 8 °C 1017.5 hPa Calm     93% 0 mm 0 W/m2
01:54 8.9 °C 7.9 °C 1017.5 hPa Calm     93% 0 mm 0 W/m2
02:00 8.9 °C 7.9 °C 1017.5 hPa Calm     93% 0 mm 0 W/m2
02:06 8.9 °C 7.8 °C 1017.5 hPa Calm     93% 0 mm 0 W/m2
02:12 8.9 °C 7.8 °C 1017.5 hPa Calm     93% 0 mm 0 W/m2
02:18 8.9 °C 7.8 °C 1017.5 hPa Calm   1.6 km/h 93% 0 mm 0 W/m2
02:24 8.9 °C 7.8 °C 1017.5 hPa Calm     93% 0 mm 0 W/m2
02:30 8.9 °C 7.8 °C 1017.5 hPa Calm     93% 0 mm 0 W/m2
02:36 8.9 °C 7.9 °C 1017.5 hPa Calm     93% 0 mm 0 W/m2
02:42 8.9 °C 7.9 °C 1017.5 hPa Calm     93% 0 mm 0 W/m2
02:48 9 °C 7.9 °C 1017.5 hPa Calm   1.6 km/h 93% 0 mm 0 W/m2
02:54 9.1 °C 8.2 °C 1017.5 hPa Calm   1.6 km/h 94% 0 mm 0 W/m2
03:00 9.1 °C 8.2 °C 1017.5 hPa ESE 1.6 km/h 1.6 km/h 94% 0 mm 0 W/m2
03:06 9.1 °C 8.2 °C 1017.2 hPa Calm   1.6 km/h 94% 0 mm 0 W/m2
03:12 9.1 °C 8.2 °C 1017.2 hPa Calm     94% 0 mm 0 W/m2
03:18 9.1 °C 8.2 °C 1017.2 hPa Calm     94% 0 mm 0 W/m2
03:24 9.1 °C 8.2 °C 1017.5 hPa Calm     94% 0 mm 0 W/m2
03:30 9.1 °C 8.2 °C 1017.2 hPa Calm     94% 0 mm 0 W/m2
03:36 9.2 °C 8.3 °C 1017.5 hPa Calm     94% 0 mm 0 W/m2
03:42 9.1 °C 8.2 °C 1017.5 hPa Calm     94% 0 mm 0 W/m2
03:48 9.1 °C 8.2 °C 1017.5 hPa Calm   1.6 km/h 94% 0 mm 0 W/m2
03:54 9.1 °C 8.2 °C 1017.5 hPa Calm   1.6 km/h 94% 0 mm 0 W/m2
04:00 9.1 °C 8.2 °C 1017.5 hPa Calm     94% 0 mm 0 W/m2
04:06 9.1 °C 8.2 °C 1017.5 hPa Calm     94% 0 mm 0 W/m2
04:12 9.1 °C 8.2 °C 1017.8 hPa Calm     94% 0 mm 0 W/m2
04:18 9.1 °C 8.2 °C 1017.8 hPa Calm     94% 0 mm 0 W/m2
04:24 9.1 °C 8.2 °C 1017.8 hPa Calm     94% 0 mm 0 W/m2
04:30 9.1 °C 8.2 °C 1017.8 hPa Calm     94% 0 mm 0 W/m2
04:36 9.1 °C 8.2 °C 1017.8 hPa Calm     94% 0 mm 0 W/m2
04:42 9.1 °C 8.2 °C 1018.2 hPa Calm   3.2 km/h 94% 0 mm 0 W/m2
04:48 9.2 °C 8.3 °C 1018.2 hPa North 3.2 km/h 4.8 km/h 94% 0 mm 0 W/m2
04:54 9.1 °C 8.2 °C 1018.2 hPa North 3.2 km/h 4.8 km/h 94% 0 mm 0 W/m2
05:00 9.1 °C 8.2 °C 1018.2 hPa North 3.2 km/h 3.2 km/h 94% 0 mm 0 W/m2
05:06 9.2 °C 8.3 °C 1018.2 hPa North 1.6 km/h 3.2 km/h 94% 0 mm 0 W/m2
05:12 9.2 °C 8.3 °C 1018.2 hPa North 1.6 km/h 3.2 km/h 94% 0 mm 0 W/m2
05:18 9.1 °C 8.2 °C 1018.2 hPa Calm   3.2 km/h 94% 0 mm 0 W/m2
05:24 9.1 °C 8.2 °C 1018.2 hPa Calm     94% 0 mm 0 W/m2
05:30 9.1 °C 8.2 °C 1018.2 hPa Calm     94% 0 mm 0 W/m2
05:36 9.1 °C 8.2 °C 1018.2 hPa Calm     94% 0 mm 0 W/m2
05:42 9.1 °C 8.2 °C 1018.2 hPa Calm     94% 0 mm 0 W/m2
05:48 9.1 °C 8.2 °C 1018.2 hPa Calm     94% 0 mm 0 W/m2
05:54 9.1 °C 8.2 °C 1018.2 hPa North 1.6 km/h 3.2 km/h 94% 0 mm 0 W/m2
05:56 9.1 °C 8.2 °C 1018.2 hPa North 1.6 km/h 3.2 km/h 94% 0 mm 0 W/m2
06:02 9.1 °C 8.2 °C 1018.2 hPa North 1.6 km/h 1.6 km/h 94% 0 mm 0 W/m2
06:08 9.1 °C 8.2 °C 1018.2 hPa North 1.6 km/h 1.6 km/h 94% 0 mm 0 W/m2
06:14 9.1 °C 8.2 °C 1018.5 hPa North 1.6 km/h 3.2 km/h 94% 0 mm 0 W/m2
06:20 9.1 °C 8.2 °C 1018.5 hPa North 3.2 km/h 3.2 km/h 94% 0 mm 0 W/m2
06:26 9.1 °C 8.2 °C 1018.2 hPa North 3.2 km/h 6.4 km/h 94% 0 mm 0 W/m2
06:32 9.1 °C 8.2 °C 1018.5 hPa North 3.2 km/h 3.2 km/h 94% 0 mm 0 W/m2
06:38 9.1 °C 8.2 °C 1018.5 hPa NNW 3.2 km/h 3.2 km/h 94% 0 mm 5 W/m2
06:44 9.1 °C 8.2 °C 1018.5 hPa NNW 3.2 km/h 4.8 km/h 94% 0 mm 7 W/m2
06:50 9 °C 8.1 °C 1018.5 hPa North 3.2 km/h 3.2 km/h 94% 0 mm 9 W/m2
06:56 9 °C 8.1 °C 1018.5 hPa North 3.2 km/h 3.2 km/h 94% 0 mm 7 W/m2
07:02 8.9 °C 8 °C 1018.8 hPa NNW 3.2 km/h 6.4 km/h 94% 0 mm 7 W/m2
07:08 8.8 °C 7.9 °C 1018.8 hPa NNW 4.8 km/h 6.4 km/h 94% 0 mm 7 W/m2
07:14 8.7 °C 7.8 °C 1018.5 hPa NNW 4.8 km/h 4.8 km/h 94% 0 mm 14 W/m2
07:20 8.6 °C 7.7 °C 1018.5 hPa NNW 3.2 km/h 3.2 km/h 94% 0 mm 21 W/m2
07:26 8.6 °C 7.7 °C 1018.5 hPa NNW 3.2 km/h 3.2 km/h 94% 0 mm 35 W/m2
07:32 8.5 °C 7.6 °C 1018.8 hPa NNW 1.6 km/h 1.6 km/h 94% 0 mm 12 W/m2
07:38 8.5 °C 7.6 °C 1019.2 hPa NNW 1.6 km/h 3.2 km/h 94% 0 mm 9 W/m2
07:44 8.4 °C 7.6 °C 1019.2 hPa NNW 1.6 km/h 4.8 km/h 94% 0 mm 12 W/m2
07:50 8.4 °C 7.5 °C 1019.2 hPa NNW 3.2 km/h 3.2 km/h 94% 0 mm 37 W/m2
07:56 8.4 °C 7.6 °C 1019.2 hPa NNW 3.2 km/h 4.8 km/h 94% 0 mm 47 W/m2
08:02 8.4 °C 7.5 °C 1019.5 hPa NNW 4.8 km/h 4.8 km/h 94% 0 mm 47 W/m2
08:08 8.3 °C 7.3 °C 1019.5 hPa NNW 3.2 km/h 8 km/h 93% 0 mm 53 W/m2
08:14 8.3 °C 7.3 °C 1019.2 hPa NNW 3.2 km/h 6.4 km/h 93% 0 mm 54 W/m2
08:20 8.4 °C 7.3 °C 1019.2 hPa NNW 1.6 km/h 3.2 km/h 93% 0 mm 67 W/m2
08:26 8.4 °C 7.4 °C 1019.2 hPa NNW 1.6 km/h 3.2 km/h 93% 0 mm 70 W/m2
08:32 8.5 °C 7.4 °C 1019.2 hPa NNW 1.6 km/h 1.6 km/h 93% 0 mm 70 W/m2
08:38 8.6 °C 7.6 °C 1019.2 hPa NNW 1.6 km/h 3.2 km/h 93% 0 mm 74 W/m2
08:44 8.6 °C 7.6 °C 1018.8 hPa NNW 1.6 km/h 1.6 km/h 93% 0 mm 98 W/m2
08:50 8.7 °C 7.7 °C 1019.2 hPa NNW 1.6 km/h 1.6 km/h 93% 0 mm 93 W/m2
08:56 8.8 °C 7.7 °C 1019.2 hPa NNW 1.6 km/h 4.8 km/h 93% 0 mm 107 W/m2
09:02 8.9 °C 7.9 °C 1019.2 hPa NNW 1.6 km/h 8 km/h 93% 0 mm 118 W/m2
09:08 9 °C 7.8 °C 1019.2 hPa ENE 3.2 km/h 9.7 km/h 92% 0 mm 132 W/m2
09:14 9 °C 7.8 °C 1019.2 hPa NNE 4.8 km/h 8 km/h 92% 0 mm 134 W/m2
09:20 9.1 °C 7.7 °C 1019.2 hPa NE 4.8 km/h 6.4 km/h 91% 0 mm 114 W/m2
09:26 9.1 °C 7.6 °C 1019.2 hPa ENE 3.2 km/h 6.4 km/h 90% 0 mm 118 W/m2
09:32 9.2 °C 7.4 °C 1019.5 hPa North 4.8 km/h 4.8 km/h 89% 0 mm 111 W/m2
09:38 9.2 °C 7.5 °C 1019.5 hPa NNW 3.2 km/h 4.8 km/h 89% 0 mm 116 W/m2
09:44 9.3 °C 7.6 °C 1019.9 hPa NNW 3.2 km/h 4.8 km/h 89% 0 mm 102 W/m2
09:50 9.3 °C 7.4 °C 1020.2 hPa NW 3.2 km/h 3.2 km/h 88% 0 mm 111 W/m2
09:56 9.3 °C 7.4 °C 1019.9 hPa NNW 3.2 km/h 4.8 km/h 88% 0 mm 127 W/m2
10:02 9.3 °C 7.4 °C 1019.9 hPa NNW 1.6 km/h 4.8 km/h 88% 0 mm 148 W/m2
10:08 9.4 °C 7.6 °C 1019.9 hPa NNW 1.6 km/h 4.8 km/h 88% 0 mm 160 W/m2
10:14 9.5 °C 7.6 °C 1019.5 hPa NNW 1.6 km/h 4.8 km/h 88% 0 mm 174 W/m2
10:20 9.4 °C 7.4 °C 1019.5 hPa NNW 3.2 km/h 3.2 km/h 87% 0 mm 213 W/m2
10:26 9.6 °C 7.5 °C 1019.2 hPa NNW 3.2 km/h 3.2 km/h 87% 0 mm 253 W/m2
10:32 9.8 °C 7.7 °C 1019.2 hPa NNW 1.6 km/h 3.2 km/h 87% 0 mm 214 W/m2
10:38 9.9 °C 7.9 °C 1019.2 hPa NNW 1.6 km/h 4.8 km/h 87% 0 mm 230 W/m2
10:44 10.1 °C 7.9 °C 1019.2 hPa NNW 1.6 km/h 4.8 km/h 86% 0 mm 313 W/m2
10:50 10.1 °C 7.9 °C 1019.2 hPa ENE 3.2 km/h 3.2 km/h 86% 0 mm 192 W/m2
10:56 10.2 °C 8 °C 1019.2 hPa NE 4.8 km/h 9.7 km/h 86% 0 mm 218 W/m2
11:02 10.4 °C 8.2 °C 1019.5 hPa North 3.2 km/h 8 km/h 86% 0 mm 322 W/m2
11:08 10.5 °C 8.1 °C 1019.5 hPa NE 3.2 km/h 8 km/h 85% 0 mm 339 W/m2
11:14 10.7 °C 8.2 °C 1019.9 hPa NE 3.2 km/h 4.8 km/h 85% 0 mm 229 W/m2
11:20 10.7 °C 8.3 °C 1019.5 hPa NE 1.6 km/h 1.6 km/h 85% 0 mm 183 W/m2
11:26 10.8 °C 8.4 °C 1019.2 hPa NE 1.6 km/h 3.2 km/h 85% 0 mm 272 W/m2
11:32 10.9 °C 8.3 °C 1019.2 hPa NNE 3.2 km/h 4.8 km/h 84% 0 mm 227 W/m2
11:38 11.1 °C 8.6 °C 1019.2 hPa NNE 3.2 km/h 6.4 km/h 85% 0 mm 230 W/m2
11:44 11.1 °C 8.3 °C 1019.2 hPa NNE 3.2 km/h 3.2 km/h 83% 0 mm 278 W/m2
11:50 11.2 °C 8.4 °C 1019.2 hPa NNE 1.6 km/h 1.6 km/h 83% 0 mm 320 W/m2
11:56 11.3 °C 8.4 °C 1019.2 hPa NNE 1.6 km/h 6.4 km/h 82% 0 mm 253 W/m2
12:02 11.4 °C 8.6 °C 1019.2 hPa ENE 1.6 km/h 4.8 km/h 83% 0 mm 281 W/m2
12:08 11.3 °C 8.6 °C 1018.8 hPa ENE 3.2 km/h 4.8 km/h 83% 0 mm 304 W/m2
12:14 11.3 °C 8.6 °C 1018.5 hPa ENE 1.6 km/h 3.2 km/h 83% 0 mm 334 W/m2
12:20 11.5 °C 8.6 °C 1018.5 hPa Calm   4.8 km/h 82% 0 mm 468 W/m2
12:26 11.8 °C 8.8 °C 1018.5 hPa ENE 1.6 km/h 4.8 km/h 82% 0 mm 397 W/m2
12:32 12.1 °C 8.9 °C 1018.8 hPa ENE 3.2 km/h 6.4 km/h 81% 0 mm 492 W/m2
12:38 12.2 °C 9.2 °C 1018.8 hPa ENE 3.2 km/h 6.4 km/h 82% 0 mm 434 W/m2
12:44 12.8 °C 9.4 °C 1018.5 hPa ENE 1.6 km/h 4.8 km/h 80% 0 mm 496 W/m2
12:50 12.7 °C 8.9 °C 1018.8 hPa NNW 1.6 km/h 1.6 km/h 78% 0 mm 643 W/m2
12:56 12.4 °C 8.9 °C 1018.5 hPa NNW 1.6 km/h 1.6 km/h 79% 0 mm 325 W/m2
13:02 12.7 °C 9.1 °C 1018.5 hPa NW 1.6 km/h 3.2 km/h 79% 0 mm 350 W/m2
13:08 13 °C 9.1 °C 1018.5 hPa NW 1.6 km/h 4.8 km/h 77% 0 mm 385 W/m2
13:14 12.9 °C 9.2 °C 1018.5 hPa NW 1.6 km/h 4.8 km/h 78% 0 mm 387 W/m2
13:20 12.9 °C 9.4 °C 1018.2 hPa NW 1.6 km/h 3.2 km/h 79% 0 mm 206 W/m2
13:26 13.1 °C 9.1 °C 1018.2 hPa NW 1.6 km/h 3.2 km/h 77% 0 mm 308 W/m2
13:32 13 °C 9.1 °C 1017.8 hPa NW 3.2 km/h 3.2 km/h 77% 0 mm 304 W/m2
13:38 13.1 °C 9.3 °C 1017.5 hPa NW 1.6 km/h 3.2 km/h 78% 0 mm 436 W/m2
13:44 13.6 °C 9.4 °C 1017.5 hPa ENE 1.6 km/h 1.6 km/h 76% 0 mm 420 W/m2
13:50 13.4 °C 9.1 °C 1017.5 hPa ESE 1.6 km/h 4.8 km/h 75% 0 mm 406 W/m2
13:56 13.4 °C 9.5 °C 1017.5 hPa SE 3.2 km/h 4.8 km/h 77% 0 mm 318 W/m2
14:02 13.4 °C 8.9 °C 1017.5 hPa South 1.6 km/h 3.2 km/h 74% 0 mm 239 W/m2
14:08 13.4 °C 9.2 °C 1017.5 hPa South 1.6 km/h 3.2 km/h 76% 0 mm 197 W/m2
14:14 13.4 °C 8.8 °C 1017.5 hPa SSW 1.6 km/h 3.2 km/h 74% 0 mm 128 W/m2
14:20 13.4 °C 8.8 °C 1017.8 hPa East 3.2 km/h 3.2 km/h 74% 0 mm 91 W/m2
14:26 13.3 °C 8.7 °C 1017.8 hPa East 3.2 km/h 3.2 km/h 74% 0 mm 88 W/m2
14:32 13.3 °C 8.7 °C 1017.8 hPa East 1.6 km/h 4.8 km/h 74% 0 mm 100 W/m2
14:38 13.2 °C 8.9 °C 1017.5 hPa East 3.2 km/h 4.8 km/h 75% 0 mm 86 W/m2
14:44 13.2 °C 9.1 °C 1017.5 hPa East 1.6 km/h 3.2 km/h 76% 0 mm 76 W/m2
14:50 13.2 °C 8.9 °C 1017.5 hPa North 1.6 km/h 1.6 km/h 75% 0 mm 67 W/m2
14:56 13.2 °C 9.2 °C 1017.2 hPa North 1.6 km/h 3.2 km/h 77% 0 mm 91 W/m2
15:02 13.1 °C 9.1 °C 1017.2 hPa NE 1.6 km/h 1.6 km/h 77% 0 mm 102 W/m2
15:08 12.8 °C 9.1 °C 1016.8 hPa NE 1.6 km/h 3.2 km/h 78% 0 mm 148 W/m2
15:14 12.8 °C 9.4 °C 1016.5 hPa NE 3.2 km/h 4.8 km/h 80% 0 mm 156 W/m2
15:20 12.8 °C 9.4 °C 1016.1 hPa NE 3.2 km/h 3.2 km/h 80% 0 mm 257 W/m2
15:26 12.9 °C 9.8 °C 1015.5 hPa East 1.6 km/h 4.8 km/h 81% 0 mm 241 W/m2
15:32 12.9 °C 9.4 °C 1015.1 hPa ENE 3.2 km/h 4.8 km/h 79% 0 mm 160 W/m2
15:38 12.9 °C 9.2 °C 1015.1 hPa NE 4.8 km/h 4.8 km/h 78% 0 mm 158 W/m2
15:44 13 °C 9.3 °C 1015.5 hPa East 3.2 km/h 4.8 km/h 78% 0 mm 188 W/m2
15:50 13.1 °C 9.3 °C 1014.8 hPa ENE 3.2 km/h 4.8 km/h 78% 0 mm 292 W/m2
15:56 13.3 °C 9.3 °C 1014.8 hPa ENE 4.8 km/h 8 km/h 77% 0 mm 336 W/m2
16:02 13.4 °C 9.3 °C 1014.8 hPa East 6.4 km/h 9.7 km/h 76% 0 mm 283 W/m2
16:08 13.6 °C 9.2 °C 1014.8 hPa ENE 4.8 km/h 9.7 km/h 75% 0 mm 316 W/m2
16:14 13.8 °C 9.6 °C 1014.8 hPa SE 4.8 km/h 6.4 km/h 76% 0 mm 278 W/m2
16:20 13.9 °C 9.3 °C 1014.4 hPa ENE 4.8 km/h 8 km/h 74% 0 mm 283 W/m2
16:26 13.8 °C 9.3 °C 1014.4 hPa East 4.8 km/h 8 km/h 74% 0 mm 171 W/m2
16:32 13.9 °C 9.7 °C 1014.4 hPa SSE 4.8 km/h 4.8 km/h 76% 0 mm 149 W/m2
16:38 13.8 °C 9.5 °C 1014.4 hPa SE 4.8 km/h 4.8 km/h 75% 0 mm 118 W/m2
16:44 13.8 °C 9.5 °C 1014.4 hPa SE 3.2 km/h 6.4 km/h 75% 0 mm 162 W/m2
16:50 13.9 °C 9.7 °C 1014.4 hPa SE 4.8 km/h 4.8 km/h 76% 0 mm 149 W/m2
16:56 13.9 °C 9.7 °C 1014.4 hPa SSE 3.2 km/h 6.4 km/h 76% 0 mm 128 W/m2
17:02 13.9 °C 9.3 °C 1014.4 hPa SSE 4.8 km/h 4.8 km/h 74% 0 mm 93 W/m2
17:08 13.9 °C 9.6 °C 1014.4 hPa ESE 4.8 km/h 9.7 km/h 75% 0 mm 86 W/m2
17:14 13.9 °C 9.6 °C 1014.4 hPa East 3.2 km/h 4.8 km/h 75% 0 mm 113 W/m2
17:20 14 °C 9.6 °C 1014.4 hPa East 1.6 km/h 1.6 km/h 75% 0 mm 113 W/m2
17:26 14.1 °C 9.7 °C 1014.4 hPa ENE 1.6 km/h 3.2 km/h 75% 0 mm 81 W/m2
17:32 14 °C 9.6 °C 1014.1 hPa ESE 1.6 km/h 6.4 km/h 75% 0 mm 67 W/m2
17:38 13.9 °C 9.4 °C 1014.1 hPa East 3.2 km/h 6.4 km/h 74% 0 mm 53 W/m2
17:44 13.9 °C 9.4 °C 1014.1 hPa East 3.2 km/h 3.2 km/h 74% 0 mm 67 W/m2
17:50 13.9 °C 9.6 °C 1014.1 hPa SE 1.6 km/h 3.2 km/h 75% 0 mm 56 W/m2
17:56 13.9 °C 9.6 °C 1013.8 hPa ESE 1.6 km/h 4.8 km/h 75% 0 mm 44 W/m2
18:02 13.9 °C 9.6 °C 1013.8 hPa ENE 1.6 km/h 3.2 km/h 75% 0 mm 49 W/m2
18:08 13.9 °C 9.6 °C 1013.8 hPa ENE 1.6 km/h 4.8 km/h 75% 0 mm 33 W/m2
18:14 13.8 °C 9.3 °C 1013.8 hPa ENE 1.6 km/h 1.6 km/h 74% 0 mm 30 W/m2
18:20 13.8 °C 9.5 °C 1013.8 hPa ENE 1.6 km/h 1.6 km/h 75% 0 mm 25 W/m2
18:26 13.8 °C 9.4 °C 1013.4 hPa ENE 1.6 km/h 4.8 km/h 75% 0 mm 32 W/m2
18:32 13.7 °C 9.3 °C 1013.4 hPa ENE 3.2 km/h 3.2 km/h 75% 0 mm 46 W/m2
18:38 13.6 °C 9.4 °C 1013.4 hPa ENE 3.2 km/h 4.8 km/h 76% 0 mm 49 W/m2
18:44 13.6 °C 9.8 °C 1013.4 hPa ENE 4.8 km/h 6.4 km/h 78% 0 mm 47 W/m2
18:50 13.4 °C 9.7 °C 1013.1 hPa ENE 3.2 km/h 4.8 km/h 78% 0 mm 44 W/m2
18:56 13.4 °C 9.5 °C 1013.1 hPa ENE 3.2 km/h 6.4 km/h 77% 0 mm 26 W/m2
19:02 13.4 °C 9.5 °C 1013.1 hPa ENE 3.2 km/h 6.4 km/h 77% 0 mm 14 W/m2
19:08 13.4 °C 9.7 °C 1013.1 hPa East 3.2 km/h 6.4 km/h 78% 0 mm 12 W/m2
19:14 13.4 °C 9.7 °C 1012.8 hPa ENE 3.2 km/h 4.8 km/h 78% 0 mm 11 W/m2
19:20 13.4 °C 9.6 °C 1012.8 hPa ENE 1.6 km/h 3.2 km/h 78% 0 mm 7 W/m2
19:26 13.4 °C 9.6 °C 1013.1 hPa ENE 1.6 km/h 3.2 km/h 78% 0 mm 0 W/m2
19:32 13.4 °C 9.6 °C 1013.1 hPa ENE 1.6 km/h 8 km/h 78% 0 mm 0 W/m2
19:38 13.3 °C 9.8 °C 1012.8 hPa East 1.6 km/h 8 km/h 79% 0 mm 0 W/m2
19:44 13.2 °C 9.8 °C 1012.8 hPa Calm   1.6 km/h 80% 0 mm 0 W/m2
19:50 13.1 °C 9.9 °C 1012.8 hPa Calm   1.6 km/h 81% 0 mm 0 W/m2
19:56 12.8 °C 9.8 °C 1012.8 hPa ENE 1.6 km/h 4.8 km/h 82% 0 mm 0 W/m2
20:02 12.7 °C 9.8 °C 1012.4 hPa ENE 1.6 km/h 1.6 km/h 83% 0 mm 0 W/m2
20:08 12.6 °C 10.1 °C 1012.1 hPa ENE 1.6 km/h 3.2 km/h 85% 0 mm 0 W/m2
20:14 12.4 °C 10 °C 1012.1 hPa SE 1.6 km/h 3.2 km/h 85% 0 mm 0 W/m2
20:20 12.4 °C 10.1 °C 1012.1 hPa ENE 3.2 km/h 3.2 km/h 86% 0 mm 0 W/m2
20:26 12.4 °C 10.1 °C 1012.1 hPa ENE 3.2 km/h 3.2 km/h 86% 0 mm 0 W/m2
20:32 12.3 °C 10.1 °C 1012.1 hPa ESE 1.6 km/h 4.8 km/h 86% 4.06 mm 0 W/m2
20:38 12.3 °C 10.2 °C 1011.7 hPa ENE 4.8 km/h 9.7 km/h 87% 3.3 mm 0 W/m2
20:44 12.2 °C 10.1 °C 1011.7 hPa ESE 4.8 km/h 6.4 km/h 87% 2.54 mm 0 W/m2
20:50 12.2 °C 10.1 °C 1012.1 hPa ENE 4.8 km/h 8 km/h 87% 1.78 mm 0 W/m2
20:56 12.3 °C 10.2 °C 1012.1 hPa ENE 6.4 km/h 8 km/h 87% 1.78 mm 0 W/m2
21:02 12.2 °C 10.1 °C 1012.1 hPa ESE 4.8 km/h 6.4 km/h 87% 1.02 mm 0 W/m2
21:08 12.1 °C 10 °C 1012.1 hPa ESE 4.8 km/h 6.4 km/h 87% 4.57 mm 0 W/m2
21:14 12 °C 10.1 °C 1011.7 hPa East 6.4 km/h 8 km/h 88% 2.03 mm 0 W/m2
21:20 11.9 °C 9.9 °C 1011.7 hPa ESE 6.4 km/h 6.4 km/h 88% 1.52 mm 0 W/m2
21:26 11.8 °C 9.9 °C 1011.7 hPa ENE 4.8 km/h 6.4 km/h 88% 1.52 mm 0 W/m2
21:32 11.7 °C 9.9 °C 1011.1 hPa ENE 6.4 km/h 9.7 km/h 89% 4.57 mm 0 W/m2
21:38 11.6 °C 9.8 °C 1010.7 hPa ENE 6.4 km/h 17.7 km/h 89% 4.83 mm 0 W/m2
21:44 11.6 °C 9.8 °C 1011.1 hPa SE 6.4 km/h 6.4 km/h 89% 2.03 mm 0 W/m2
21:50 11.4 °C 9.7 °C 1011.1 hPa ESE 6.4 km/h 6.4 km/h 89% 1.02 mm 0 W/m2
21:56 11.4 °C 9.9 °C 1011.1 hPa ESE 4.8 km/h 6.4 km/h 90% 0 mm 0 W/m2
22:02 11.4 °C 9.8 °C 1011.1 hPa ENE 4.8 km/h 6.4 km/h 90% 0 mm 0 W/m2
22:08 11.4 °C 9.8 °C 1011.4 hPa ENE 3.2 km/h 8 km/h 90% 8.13 mm 0 W/m2
22:14 11.4 °C 9.8 °C 1011.4 hPa SE 4.8 km/h 9.7 km/h 90% 9.4 mm 0 W/m2
22:20 11.3 °C 9.7 °C 1011.1 hPa East 4.8 km/h 4.8 km/h 90% 6.86 mm 0 W/m2
22:26 11.2 °C 9.8 °C 1010.7 hPa NE 4.8 km/h 4.8 km/h 91% 13.21 mm 0 W/m2
22:32 11.1 °C 9.7 °C 1011.1 hPa East 6.4 km/h 6.4 km/h 91% 12.45 mm 0 W/m2
22:40 11.1 °C 9.7 °C 1010.7 hPa East 4.8 km/h 4.8 km/h 91% 11.94 mm 0 W/m2
22:46 10.9 °C 9.6 °C 1011.1 hPa East 4.8 km/h 4.8 km/h 91% 12.19 mm 0 W/m2
22:52 10.9 °C 9.6 °C 1011.1 hPa ESE 3.2 km/h 4.8 km/h 91% 16.76 mm 0 W/m2
22:58 10.9 °C 9.7 °C 1011.1 hPa ENE 3.2 km/h 4.8 km/h 92% 10.92 mm 0 W/m2
23:04 10.9 °C 9.7 °C 1011.1 hPa ENE 3.2 km/h 4.8 km/h 92% 6.86 mm 0 W/m2
23:10 10.9 °C 9.7 °C 1011.1 hPa East 3.2 km/h 3.2 km/h 92% 6.35 mm 0 W/m2
23:16 10.9 °C 9.7 °C 1011.1 hPa ENE 3.2 km/h 6.4 km/h 92% 6.86 mm 0 W/m2
23:22 10.9 °C 9.7 °C 1010.7 hPa East 4.8 km/h 9.7 km/h 92% 6.6 mm 0 W/m2
23:28 10.8 °C 9.6 °C 1010.7 hPa ENE 4.8 km/h 9.7 km/h 92% 6.86 mm 0 W/m2
23:34 10.8 °C 9.6 °C 1010.7 hPa ENE 4.8 km/h 8 km/h 92% 11.68 mm 0 W/m2
23:40 10.8 °C 9.6 °C 1010.7 hPa ENE 4.8 km/h 4.8 km/h 92% 5.59 mm 0 W/m2
23:46 10.8 °C 9.7 °C 1010.7 hPa East 3.2 km/h 9.7 km/h 93% 3.05 mm 0 W/m2
23:52 10.7 °C 9.6 °C 1010.4 hPa ENE 4.8 km/h 4.8 km/h 93% 2.54 mm 0 W/m2
23:58 10.7 °C 9.6 °C 1010 hPa East 4.8 km/h 6.4 km/h 93% 4.32 mm 0 W/m2
Country Meadow, Clay, NY, USA
Compliments of Weather Underground - 2 mb